Time;durP1;ratioP1;P1;durP2;ratioP2;P2;SDS_P1;SDS_P2;PMS_P1;PMS_P2;Temp;Humidity;BMP_temperature;BMP_pressure;BME280_temperature;BME280_humidity;BME280_pressure;Samples;Min_cycle;Max_cycle;Signal;HPM_P1;HPM_P2
2022/12/26 00:01:54;;;;;;;2.20;2.10;;;11.50;99.90;;;;;;5068266;28;20532;-80
2022/12/26 00:04:24;;;;;;;2.87;2.63;;;11.50;99.90;;;;;;5068968;28;20903;-82
2022/12/26 00:07:12;;;;;;;2.67;2.50;;;11.50;1.00;;;;;;5070816;28;20445;-80
2022/12/26 00:09:40;;;;;;;2.50;2.30;;;11.50;1.00;;;;;;5070832;28;20565;-80
2022/12/26 00:12:09;;;;;;;2.13;2.00;;;11.50;1.00;;;;;;5071359;28;20484;-81
2022/12/26 00:14:38;;;;;;;2.30;2.10;;;11.50;1.00;;;;;;5069266;28;20487;-81
2022/12/26 00:17:07;;;;;;;2.50;2.30;;;11.50;99.90;;;;;;5071241;28;20463;-80
2022/12/26 00:19:36;;;;;;;3.57;2.60;;;11.50;1.00;;;;;;5070837;28;20485;-81
2022/12/26 00:22:05;;;;;;;2.30;2.03;;;11.40;1.00;;;;;;5069151;28;20546;-80
2022/12/26 00:24:33;;;;;;;2.23;2.13;;;11.40;1.00;;;;;;5070068;28;20538;-81
2022/12/26 00:27:01;;;;;;;2.60;2.40;;;11.40;47.50;;;;;;5069861;28;20448;-80
2022/12/26 00:29:30;;;;;;;4.37;2.60;;;11.40;1.00;;;;;;5070523;28;20583;-83
2022/12/26 00:31:58;;;;;;;2.40;2.20;;;11.40;1.00;;;;;;5070683;28;20824;-82
2022/12/26 00:34:26;;;;;;;2.50;2.30;;;11.40;1.00;;;;;;5069955;28;20465;-81
2022/12/26 00:36:56;;;;;;;2.00;1.90;;;11.40;1.00;;;;;;5068913;28;20459;-80
2022/12/26 00:39:24;;;;;;;2.67;2.47;;;11.50;1.00;;;;;;5069148;28;20478;-82
2022/12/26 00:41:52;;;;;;;2.37;2.17;;;11.40;1.00;;;;;;5070285;28;20452;-83
2022/12/26 00:44:21;;;;;;;2.47;2.27;;;11.40;99.90;;;;;;5068754;28;20455;-79
2022/12/26 00:46:49;;;;;;;3.00;2.80;;;11.40;1.00;;;;;;5069571;28;20469;-81
2022/12/26 00:49:17;;;;;;;4.80;2.83;;;11.40;1.00;;;;;;5069443;28;20509;-81
2022/12/26 00:51:45;;;;;;;2.60;2.40;;;11.40;38.00;;;;;;5071045;28;20457;-80
2022/12/26 00:54:15;;;;;;;2.47;2.30;;;11.30;99.90;;;;;;5069165;28;20790;-81
2022/12/26 00:56:43;;;;;;;2.63;2.30;;;11.30;1.00;;;;;;5067965;28;20470;-81
2022/12/26 00:59:12;;;;;;;2.00;1.90;;;11.20;1.00;;;;;;5058270;28;20482;-80
2022/12/26 01:01:40;;;;;;;2.40;2.30;;;11.20;1.00;;;;;;5068461;28;20451;-82
2022/12/26 01:04:09;;;;;;;2.80;2.60;;;11.30;1.00;;;;;;5068120;28;20457;-80
2022/12/26 01:06:37;;;;;;;2.83;2.63;;;11.30;1.00;;;;;;5070374;28;20473;-84
2022/12/26 01:09:06;;;;;;;2.20;2.00;;;11.30;1.00;;;;;;5067647;28;20485;-80
2022/12/26 01:11:41;;;;;;;2.57;2.37;;;11.30;1.00;;;;;;5069006;28;20462;-80
2022/12/26 01:14:13;;;;;;;2.03;1.93;;;11.40;1.00;;;;;;5068238;28;20451;-81
2022/12/26 01:16:46;;;;;;;2.83;2.70;;;11.50;1.00;;;;;;5069512;28;20463;-82
2022/12/26 01:19:14;;;;;;;2.50;2.40;;;11.40;99.90;;;;;;5068808;28;20467;-81
2022/12/26 01:21:43;;;;;;;2.30;2.20;;;11.40;1.00;;;;;;5070117;28;20506;-81
2022/12/26 01:24:12;;;;;;;2.40;2.30;;;11.40;1.00;;;;;;5069130;28;20474;-80
2022/12/26 01:26:42;;;;;;;2.40;2.30;;;11.40;1.00;;;;;;5070166;28;20526;-79
2022/12/26 01:29:10;;;;;;;2.40;2.30;;;11.40;99.90;;;;;;5066141;28;20570;-81
2022/12/26 01:31:38;;;;;;;2.20;2.10;;;11.30;99.90;;;;;;5068475;28;20458;-80
2022/12/26 01:34:06;;;;;;;2.57;2.43;;;11.30;99.90;;;;;;5068806;28;20513;-81
2022/12/26 01:36:35;;;;;;;2.43;2.23;;;11.30;1.00;;;;;;5069253;28;20471;-81
2022/12/26 01:39:03;;;;;;;3.07;2.43;;;11.40;1.00;;;;;;5066329;28;20883;-80
2022/12/26 01:41:32;;;;;;;2.80;2.30;;;11.40;1.00;;;;;;5069397;28;20499;-81
2022/12/26 01:44:03;;;;;;;2.57;2.40;;;11.40;77.90;;;;;;5068165;28;20462;-81
2022/12/26 01:46:34;;;;;;;2.47;2.37;;;11.30;99.90;;;;;;5068628;28;20534;-81
2022/12/26 01:49:12;;;;;;;2.27;2.17;;;11.40;1.00;;;;;;5066856;28;20538;-80
2022/12/26 01:51:44;;;;;;;2.57;2.37;;;11.40;1.00;;;;;;5066650;28;20454;-81
2022/12/26 01:54:14;;;;;;;2.40;2.20;;;11.40;1.00;;;;;;5068211;28;20966;-80
2022/12/26 01:57:09;;;;;;;2.40;2.30;;;11.40;1.00;;;;;;5068344;28;20516;-81
2022/12/26 01:59:41;;;;;;;1.97;1.87;;;11.40;1.00;;;;;;5067396;28;20529;-81
2022/12/26 02:02:10;;;;;;;2.37;2.27;;;11.40;1.00;;;;;;5067377;28;20448;-81
2022/12/26 02:07:31;;;;;;;1.93;1.80;;;11.40;1.00;;;;;;5069482;28;20450;-81
2022/12/26 02:10:00;;;;;;;2.30;2.20;;;11.40;1.00;;;;;;5067372;28;20473;-81
2022/12/26 02:12:31;;;;;;;2.00;1.90;;;11.40;1.00;;;;;;5070525;28;20540;-81
2022/12/26 02:15:10;;;;;;;2.17;2.03;;;11.40;1.00;;;;;;5068855;28;20466;-80
2022/12/26 02:17:38;;;;;;;2.80;2.27;;;11.40;99.90;;;;;;5070889;28;20481;-80
2022/12/26 02:20:17;;;;;;;2.07;1.97;;;11.30;99.90;;;;;;5070799;28;21020;-79
2022/12/26 02:23:43;;;;;;;1.90;1.80;;;11.30;6.70;;;;;;5068403;28;20442;-80
2022/12/26 02:26:49;;;;;;;3.07;2.23;;;11.40;99.90;;;;;;5070085;28;20462;-80
2022/12/26 02:29:46;;;;;;;2.20;2.10;;;11.40;99.90;;;;;;5067919;28;20474;-82
2022/12/26 02:32:23;;;;;;;2.40;2.30;;;11.40;1.00;;;;;;5068583;28;20536;-79
2022/12/26 02:35:02;;;;;;;2.57;2.33;;;11.50;99.90;;;;;;5069308;28;20445;-79
2022/12/26 02:37:47;;;;;;;2.40;2.30;;;11.40;99.90;;;;;;5068419;28;20494;-81
2022/12/26 02:40:27;;;;;;;2.23;2.00;;;11.40;99.90;;;;;;5070022;28;20819;-79
2022/12/26 02:43:02;;;;;;;2.20;2.10;;;11.50;99.90;;;;;;5068834;28;20450;-80
2022/12/26 02:48:35;;;;;;;3.10;2.10;;;11.40;99.90;;;;;;5069443;28;20587;-80
2022/12/26 03:13:56;;;;;;;2.37;2.17;;;11.40;99.90;;;;;;5067204;28;20443;-80
2022/12/26 03:19:13;;;;;;;2.13;1.90;;;11.50;99.90;;;;;;5069126;28;20471;-80
2022/12/26 03:21:45;;;;;;;2.17;2.07;;;11.50;99.90;;;;;;5068015;28;20442;-83
2022/12/26 03:24:16;;;;;;;2.50;2.30;;;11.40;99.90;;;;;;5069580;28;20490;-79
2022/12/26 03:26:49;;;;;;;2.00;1.90;;;11.40;99.90;;;;;;5070635;28;20458;-81
2022/12/26 03:32:08;;;;;;;1.90;1.80;;;11.40;99.90;;;;;;5070723;28;20466;-80
2022/12/26 03:34:41;;;;;;;2.30;2.10;;;11.40;1.00;;;;;;5069068;28;20493;-82
2022/12/26 03:37:29;;;;;;;2.00;1.87;;;11.40;99.90;;;;;;5069269;28;20985;-81
2022/12/26 04:21:05;;;;;;;2.70;1.90;;;11.50;72.00;;;;;;5066333;28;20470;-81
2022/12/26 04:46:22;;;;;;;2.23;2.13;;;11.50;92.90;;;;;;5069156;28;20458;-82
2022/12/26 04:51:38;;;;;;;2.03;1.90;;;11.50;99.90;;;;;;5069374;28;20494;-81
2022/12/26 04:54:07;;;;;;;1.93;1.73;;;11.50;1.00;;;;;;5069272;28;20460;-82
2022/12/26 04:56:35;;;;;;;2.50;2.40;;;11.50;99.90;;;;;;5067562;28;20965;-81
2022/12/26 04:59:04;;;;;;;2.20;2.10;;;11.40;1.00;;;;;;5069154;28;20474;-81
2022/12/26 05:09:58;;;;;;;2.70;2.50;;;11.40;99.90;;;;;;5067680;28;20470;-81
2022/12/26 05:12:26;;;;;;;2.33;2.23;;;11.20;99.90;;;;;;5069618;28;20786;-81
2022/12/26 05:14:54;;;;;;;2.30;2.10;;;11.20;91.10;;;;;;5066957;28;21273;-81
2022/12/26 05:28:42;;;;;;;2.00;1.90;;;11.30;99.90;;;;;;5067409;28;20479;-80
2022/12/26 05:31:11;;;;;;;2.17;2.07;;;11.30;99.90;;;;;;5068269;28;20500;-81
2022/12/26 05:36:31;;;;;;;2.23;2.10;;;11.30;99.90;;;;;;5067591;28;20510;-80
2022/12/26 05:39:00;;;;;;;2.03;1.93;;;11.30;1.00;;;;;;5066913;28;20479;-79
2022/12/26 05:41:29;;;;;;;2.80;2.70;;;11.30;1.00;;;;;;5069373;28;20533;-81
2022/12/26 05:43:57;;;;;;;2.63;2.13;;;11.30;99.90;;;;;;5067478;28;20450;-81
2022/12/26 05:46:25;;;;;;;2.20;2.03;;;11.30;99.90;;;;;;5068148;28;20985;-80
2022/12/26 05:48:55;;;;;;;2.10;2.00;;;11.30;99.90;;;;;;5067033;28;20580;-80
2022/12/26 05:51:23;;;;;;;2.27;2.17;;;11.40;99.90;;;;;;5068160;28;20569;-81
2022/12/26 05:53:52;;;;;;;2.30;2.20;;;11.50;99.90;;;;;;5067905;28;20454;-80
2022/12/26 05:56:21;;;;;;;2.50;2.17;;;11.50;13.90;;;;;;5065374;28;20661;-81
2022/12/26 05:58:54;;;;;;;2.37;2.17;;;11.50;72.90;;;;;;5067329;28;20489;-81
2022/12/26 06:01:23;;;;;;;3.17;2.17;;;11.50;69.10;;;;;;5067673;28;20462;-80
2022/12/26 06:03:53;;;;;;;2.63;2.30;;;11.40;99.90;;;;;;5069095;28;20469;-81
2022/12/26 06:06:24;;;;;;;2.87;2.67;;;11.50;99.90;;;;;;5068894;28;20488;-82
2022/12/26 06:08:55;;;;;;;3.00;2.00;;;11.40;55.30;;;;;;5068318;28;20453;-81
2022/12/26 06:11:25;;;;;;;2.43;2.30;;;11.50;87.10;;;;;;5068376;28;20563;-80
2022/12/26 06:13:54;;;;;;;2.33;2.13;;;11.50;1.00;;;;;;5068368;28;20523;-79
2022/12/26 06:16:22;;;;;;;2.80;2.37;;;11.50;1.40;;;;;;5069695;28;20457;-81
2022/12/26 06:18:50;;;;;;;2.33;2.13;;;11.50;1.00;;;;;;5069615;28;20475;-81
2022/12/26 06:21:20;;;;;;;4.77;2.90;;;11.50;1.00;;;;;;5067816;28;20461;-81
2022/12/26 06:23:49;;;;;;;2.57;2.37;;;11.60;1.00;;;;;;5067696;28;20442;-80
2022/12/26 06:26:18;;;;;;;2.30;2.20;;;11.50;1.00;;;;;;5068302;28;20454;-80
2022/12/26 06:28:46;;;;;;;2.23;2.13;;;11.50;1.00;;;;;;5069581;28;20486;-81
2022/12/26 06:31:19;;;;;;;2.00;1.90;;;11.50;1.00;;;;;;5069429;28;20954;-81
2022/12/26 06:33:48;;;;;;;2.03;1.90;;;11.50;1.00;;;;;;5067644;28;20550;-81
2022/12/26 06:36:18;;;;;;;2.00;1.90;;;11.50;1.00;;;;;;5069980;28;20463;-81
2022/12/26 06:38:47;;;;;;;2.77;2.57;;;11.50;1.00;;;;;;5066982;28;20495;-80
2022/12/26 06:41:18;;;;;;;2.80;2.60;;;11.50;1.00;;;;;;5063710;28;20447;-81
2022/12/26 06:43:47;;;;;;;2.93;2.07;;;11.60;1.00;;;;;;5066202;28;20470;-80
2022/12/26 06:46:17;;;;;;;3.20;2.90;;;11.60;1.00;;;;;;5067208;28;20550;-83
2022/12/26 06:48:46;;;;;;;1.97;1.83;;;11.60;1.00;;;;;;5069064;28;20487;-81
2022/12/26 06:51:16;;;;;;;2.20;2.10;;;11.60;1.00;;;;;;5069805;28;20534;-82
2022/12/26 06:53:44;;;;;;;3.10;2.90;;;11.60;1.00;;;;;;5069436;28;20454;-81
2022/12/26 06:56:15;;;;;;;2.83;2.63;;;11.50;1.00;;;;;;5068685;28;20509;-80
2022/12/26 06:58:44;;;;;;;2.03;1.93;;;11.60;28.50;;;;;;5069327;28;20464;-81
2022/12/26 07:01:14;;;;;;;2.07;1.87;;;11.70;99.90;;;;;;5069484;28;20464;-80
2022/12/26 07:03:43;;;;;;;2.70;2.50;;;11.50;99.90;;;;;;5069338;28;20476;-81
2022/12/26 07:06:23;;;;;;;3.37;2.20;;;11.60;99.90;;;;;;5069676;28;20461;-82
2022/12/26 07:08:51;;;;;;;1.90;1.80;;;11.50;94.00;;;;;;5069007;28;21392;-81
2022/12/26 07:11:22;;;;;;;2.40;2.20;;;11.50;99.90;;;;;;5068952;28;20508;-80
2022/12/26 07:13:53;;;;;;;2.27;2.07;;;11.60;99.90;;;;;;5070816;28;20790;-81
2022/12/26 07:16:21;;;;;;;2.00;1.90;;;11.60;72.50;;;;;;5071079;28;20459;-81
2022/12/26 07:18:51;;;;;;;2.17;2.07;;;11.60;44.70;;;;;;5072428;28;20981;-81
2022/12/26 07:21:19;;;;;;;2.17;2.07;;;11.60;1.00;;;;;;5071769;28;20449;-81
2022/12/26 07:23:48;;;;;;;2.43;2.23;;;11.60;11.90;;;;;;5070906;28;20537;-80
2022/12/26 07:26:16;;;;;;;1.90;1.80;;;11.60;99.90;;;;;;5071561;28;20452;-81
2022/12/26 07:28:44;;;;;;;2.27;2.07;;;11.60;99.90;;;;;;5071901;28;20474;-81
2022/12/26 07:31:18;;;;;;;2.50;2.30;;;11.60;99.90;;;;;;5072193;28;20956;-81
2022/12/26 07:33:47;;;;;;;2.67;2.40;;;11.60;94.00;;;;;;5072003;28;20440;-81
2022/12/26 07:36:15;;;;;;;2.23;2.13;;;11.70;93.80;;;;;;5072025;28;20444;-81
2022/12/26 07:38:44;;;;;;;2.00;1.90;;;11.80;1.00;;;;;;5071218;28;20928;-82
2022/12/26 07:43:58;;;;;;;2.70;2.50;;;11.70;85.10;;;;;;5071231;28;20450;-81
2022/12/26 07:46:28;;;;;;;2.80;2.60;;;11.60;99.90;;;;;;5071473;28;20462;-78
2022/12/26 07:48:56;;;;;;;3.80;3.60;;;11.60;99.90;;;;;;5071551;28;20953;-77
2022/12/26 07:51:25;;;;;;;2.47;2.20;;;11.60;99.90;;;;;;5071433;28;20998;-78
2022/12/26 07:53:53;;;;;;;3.73;2.50;;;11.60;99.90;;;;;;5071347;28;20480;-76
2022/12/26 07:56:21;;;;;;;2.53;2.33;;;11.60;99.90;;;;;;5071648;28;20907;-78
2022/12/26 07:58:49;;;;;;;2.43;2.33;;;11.60;99.90;;;;;;5071306;28;20481;-79
2022/12/26 08:01:18;;;;;;;2.37;2.27;;;11.60;99.90;;;;;;5063136;28;20450;-78
2022/12/26 08:03:49;;;;;;;3.50;3.30;;;11.60;99.90;;;;;;5069317;28;20832;-81
2022/12/26 08:06:18;;;;;;;3.13;2.53;;;11.60;1.00;;;;;;5071544;28;20459;-80
2022/12/26 08:08:47;;;;;;;3.00;2.80;;;11.60;99.90;;;;;;5071120;28;20549;-82
2022/12/26 08:11:20;;;;;;;2.10;2.00;;;11.60;1.00;;;;;;5070465;28;20447;-81
2022/12/26 08:13:48;;;;;;;2.70;2.50;;;11.60;99.90;;;;;;5069613;28;20834;-81
2022/12/26 08:16:17;;;;;;;3.87;2.70;;;11.60;1.00;;;;;;5070644;28;20547;-80
2022/12/26 08:18:45;;;;;;;3.10;2.50;;;11.50;61.40;;;;;;5070799;28;20474;-80
2022/12/26 08:21:15;;;;;;;2.40;2.30;;;11.50;40.30;;;;;;5071091;28;20458;-80
2022/12/26 08:23:44;;;;;;;2.63;2.40;;;11.40;99.90;;;;;;5069636;28;20458;-79
2022/12/26 08:26:19;;;;;;;2.87;2.67;;;11.30;99.90;;;;;;5069417;28;20446;-82
2022/12/26 08:28:47;;;;;;;3.37;3.07;;;11.30;1.00;;;;;;5069641;28;20953;-81
2022/12/26 08:31:16;;;;;;;3.30;3.10;;;11.30;1.00;;;;;;5062170;28;20477;-81
2022/12/26 08:33:45;;;;;;;2.90;2.70;;;11.30;1.00;;;;;;5069659;28;20464;-80
2022/12/26 08:36:17;;;;;;;2.97;2.67;;;11.40;1.00;;;;;;5068742;28;21068;-81
2022/12/26 08:38:46;;;;;;;2.57;2.37;;;11.30;1.00;;;;;;5069519;28;21096;-79
2022/12/26 08:41:16;;;;;;;3.20;3.00;;;11.30;1.00;;;;;;5069383;28;20934;-81
2022/12/26 08:43:47;;;;;;;3.57;3.00;;;11.40;1.00;;;;;;5070310;28;20445;-81
2022/12/26 08:46:37;;;;;;;3.30;3.10;;;11.40;31.00;;;;;;5069482;28;20461;-80
2022/12/26 08:49:05;;;;;;;2.87;2.67;;;11.50;35.80;;;;;;5069833;28;20478;-80
2022/12/26 08:51:34;;;;;;;3.83;2.60;;;11.40;99.90;;;;;;5069008;28;20439;-81
2022/12/26 08:54:03;;;;;;;3.23;3.03;;;11.40;99.90;;;;;;5068521;28;20772;-80
2022/12/26 08:56:31;;;;;;;3.00;2.80;;;11.40;99.90;;;;;;5068609;28;20446;-82
2022/12/26 08:58:59;;;;;;;6.40;2.90;;;11.30;99.90;;;;;;5065443;28;20658;-81
2022/12/26 09:01:29;;;;;;;3.30;3.10;;;11.30;99.90;;;;;;5070812;28;20440;-80
2022/12/26 09:03:59;;;;;;;3.03;2.83;;;11.40;1.00;;;;;;5067896;28;20463;-80
2022/12/26 09:06:28;;;;;;;3.93;3.50;;;11.30;1.00;;;;;;5071491;28;20443;-82
2022/12/26 09:08:59;;;;;;;3.73;3.53;;;11.30;1.00;;;;;;5069739;28;20553;-81
2022/12/26 09:11:28;;;;;;;4.57;3.23;;;11.40;1.00;;;;;;5070413;28;20452;-80
2022/12/26 09:13:58;;;;;;;2.80;2.60;;;11.40;1.00;;;;;;5068655;28;20465;-80
2022/12/26 09:16:27;;;;;;;4.10;3.70;;;11.40;1.00;;;;;;5071498;28;20451;-79
2022/12/26 09:19:04;;;;;;;3.90;3.53;;;11.40;1.00;;;;;;5069404;28;21008;-81
2022/12/26 09:21:33;;;;;;;3.80;3.50;;;11.40;1.00;;;;;;5070250;28;20450;-80
2022/12/26 09:24:04;;;;;;;4.07;3.77;;;11.40;1.00;;;;;;5068990;28;20455;-81
2022/12/26 09:26:33;;;;;;;3.70;3.47;;;11.40;1.00;;;;;;5070960;28;20450;-80
2022/12/26 09:29:02;;;;;;;4.33;4.03;;;11.30;1.00;;;;;;5066725;28;20980;-80
2022/12/26 09:31:32;;;;;;;4.07;3.73;;;11.10;1.00;;;;;;5066158;28;21051;-81
2022/12/26 09:34:02;;;;;;;4.33;4.03;;;11.10;1.00;;;;;;5067920;28;20451;-79
2022/12/26 09:36:32;;;;;;;5.50;5.00;;;11.10;1.00;;;;;;5068889;28;20485;-81
2022/12/26 09:39:02;;;;;;;6.83;5.47;;;11.10;1.00;;;;;;5067601;28;20547;-79
2022/12/26 09:41:53;;;;;;;5.60;5.10;;;11.00;1.00;;;;;;5059496;28;20486;-80
2022/12/26 09:44:28;;;;;;;4.90;4.60;;;11.00;1.00;;;;;;5068224;28;20463;-81
2022/12/26 09:47:05;;;;;;;4.63;4.23;;;11.10;1.00;;;;;;5067940;28;20814;-81
2022/12/26 09:49:36;;;;;;;5.37;4.93;;;11.00;1.00;;;;;;5068224;28;20470;-81
2022/12/26 09:52:11;;;;;;;4.23;4.03;;;11.00;1.00;;;;;;5068016;28;20478;-81
2022/12/26 09:54:47;;;;;;;5.63;5.20;;;11.00;1.00;;;;;;5068063;28;20504;-80
2022/12/26 09:57:18;;;;;;;5.30;4.80;;;11.10;1.00;;;;;;5064880;28;20476;-80
2022/12/26 09:59:52;;;;;;;4.37;4.07;;;11.10;1.00;;;;;;5062139;28;20506;-81
2022/12/26 10:02:23;;;;;;;6.53;5.93;;;11.00;1.00;;;;;;5068900;28;20465;-81
2022/12/26 10:04:52;;;;;;;4.93;4.40;;;11.10;1.00;;;;;;5068868;28;20546;-82
2022/12/26 10:07:29;;;;;;;4.87;4.50;;;11.10;1.00;;;;;;5067380;28;20886;-81
2022/12/26 10:10:10;;;;;;;5.43;5.03;;;11.10;1.00;;;;;;5066634;28;20485;-81
2022/12/26 10:12:46;;;;;;;5.00;4.60;;;11.20;1.00;;;;;;5068519;28;20485;-80
2022/12/26 10:15:36;;;;;;;6.27;5.77;;;11.20;1.00;;;;;;5067704;28;20458;-80
2022/12/26 10:18:15;;;;;;;5.40;4.90;;;11.20;1.00;;;;;;5066036;28;20455;-79
2022/12/26 10:21:07;;;;;;;5.23;4.83;;;11.20;1.00;;;;;;5065256;28;20470;-80
2022/12/26 10:23:38;;;;;;;5.33;5.03;;;11.20;1.00;;;;;;5067186;28;21033;-81
2022/12/26 10:26:14;;;;;;;5.17;4.83;;;11.20;1.00;;;;;;5067642;28;20968;-81
2022/12/26 10:28:46;;;;;;;5.83;5.33;;;11.20;1.00;;;;;;5066302;28;20471;-80
2022/12/26 10:31:21;;;;;;;4.53;4.20;;;11.30;1.00;;;;;;5067997;28;20434;-79
2022/12/26 10:33:55;;;;;;;7.00;6.30;;;11.30;1.00;;;;;;5066115;28;20451;-81
2022/12/26 10:36:31;;;;;;;5.77;5.23;;;11.20;1.00;;;;;;5066766;28;20995;-81
2022/12/26 10:39:01;;;;;;;6.03;5.43;;;11.30;1.00;;;;;;5064219;28;20468;-81
2022/12/26 10:41:37;;;;;;;6.00;5.50;;;11.30;1.00;;;;;;5068174;28;20554;-80
2022/12/26 10:44:06;;;;;;;5.50;5.10;;;11.30;1.00;;;;;;5066639;28;20454;-81
2022/12/26 10:47:09;;;;;;;5.97;5.03;;;11.30;1.00;;;;;;5066375;28;20454;-82
2022/12/26 10:49:38;;;;;;;4.33;4.13;;;11.40;1.00;;;;;;5064061;28;20487;-82
2022/12/26 10:52:07;;;;;;;4.87;4.47;;;11.40;1.00;;;;;;5065282;28;20534;-81
2022/12/26 10:54:35;;;;;;;4.50;4.20;;;11.40;1.00;;;;;;5066892;28;20450;-81
2022/12/26 10:57:07;;;;;;;3.80;3.60;;;11.30;1.00;;;;;;5065744;28;20457;-81
2022/12/26 10:59:42;;;;;;;4.30;3.87;;;11.30;1.00;;;;;;5066713;28;21112;-81
2022/12/26 11:02:23;;;;;;;4.10;3.63;;;11.40;1.00;;;;;;5064199;28;20446;-80
2022/12/26 11:05:10;;;;;;;2.90;2.70;;;11.30;1.00;;;;;;5066197;28;20458;-81
2022/12/26 11:07:57;;;;;;;3.10;3.00;;;11.40;1.00;;;;;;5067329;28;21306;-80
2022/12/26 11:10:29;;;;;;;3.33;3.00;;;11.30;1.00;;;;;;5067840;28;20470;-79
2022/12/26 11:13:01;;;;;;;2.40;2.30;;;11.30;1.00;;;;;;5068601;28;20464;-81
2022/12/26 11:15:33;;;;;;;2.37;2.27;;;11.30;1.00;;;;;;5068997;28;20453;-80
2022/12/26 11:18:16;;;;;;;2.93;2.43;;;11.30;1.00;;;;;;5069505;28;20454;-82
2022/12/26 11:20:45;;;;;;;2.50;2.40;;;11.30;1.00;;;;;;5067944;28;20868;-81
2022/12/26 11:23:22;;;;;;;2.83;2.63;;;11.30;1.00;;;;;;5066440;28;20458;-80
2022/12/26 11:25:51;;;;;;;2.90;2.50;;;11.30;1.00;;;;;;5067205;28;20486;-80
2022/12/26 11:28:26;;;;;;;2.30;2.20;;;11.20;1.00;;;;;;5067646;28;20542;-81
2022/12/26 11:30:55;;;;;;;2.00;1.90;;;11.20;1.00;;;;;;5067302;28;20470;-81
2022/12/26 11:33:26;;;;;;;2.80;2.60;;;11.20;1.00;;;;;;5067751;28;20826;-80
2022/12/26 11:36:03;;;;;;;2.27;2.17;;;11.20;1.00;;;;;;5066411;28;20463;-81
2022/12/26 11:38:36;;;;;;;2.57;2.37;;;11.10;1.00;;;;;;5066680;28;20466;-79
2022/12/26 11:41:35;;;;;;;2.13;2.03;;;11.10;1.00;;;;;;5066319;28;20477;-81
2022/12/26 11:44:19;;;;;;;2.33;2.20;;;11.20;1.00;;;;;;5066283;28;20446;-81
2022/12/26 11:46:51;;;;;;;2.00;1.90;;;11.10;1.00;;;;;;5065430;28;20817;-81
2022/12/26 11:49:25;;;;;;;2.30;1.83;;;11.20;1.00;;;;;;5080043;28;20543;-81
2022/12/26 11:51:54;;;;;;;2.10;2.00;;;11.20;1.00;;;;;;5063337;28;20451;-82
2022/12/26 11:54:30;;;;;;;1.77;1.67;;;11.10;1.00;;;;;;5067006;28;20974;-81
2022/12/26 11:57:18;;;;;;;2.30;2.20;;;11.10;1.00;;;;;;5067021;28;20454;-80
2022/12/26 11:59:49;;;;;;;1.67;1.57;;;11.20;1.00;;;;;;5069698;28;20527;-81
2022/12/26 12:02:28;;;;;;;1.60;1.50;;;11.10;1.00;;;;;;5070345;28;20569;-81
2022/12/26 12:05:00;;;;;;;1.90;1.80;;;11.10;1.00;;;;;;5069816;28;20567;-79
2022/12/26 12:07:52;;;;;;;1.50;1.40;;;11.10;1.00;;;;;;5069986;28;20549;-79
2022/12/26 12:10:46;;;;;;;1.60;1.60;;;11.00;1.00;;;;;;5071010;28;20466;-79
2022/12/26 12:13:24;;;;;;;1.60;1.50;;;11.00;1.00;;;;;;5067450;28;20447;-81
2022/12/26 12:16:00;;;;;;;1.70;1.60;;;11.00;1.00;;;;;;5069118;28;20450;-81
2022/12/26 12:18:41;;;;;;;3.10;1.97;;;11.00;1.00;;;;;;5067359;28;20442;-81
2022/12/26 12:21:17;;;;;;;1.63;1.53;;;10.90;1.00;;;;;;5070554;28;20478;-80
2022/12/26 12:24:04;;;;;;;1.50;1.40;;;10.90;1.00;;;;;;5069079;28;20475;-81
2022/12/26 12:26:39;;;;;;;1.60;1.60;;;10.80;1.00;;;;;;5070605;28;20465;-81
2022/12/26 12:29:29;;;;;;;1.40;1.40;;;10.70;1.00;;;;;;5069225;28;20527;-80
2022/12/26 12:32:08;;;;;;;1.50;1.40;;;10.80;1.00;;;;;;5069888;28;20457;-80
2022/12/26 12:35:07;;;;;;;1.60;1.60;;;10.80;1.00;;;;;;5066668;28;20465;-80
2022/12/26 12:38:09;;;;;;;1.50;1.40;;;10.80;1.00;;;;;;5069472;28;20469;-81
2022/12/26 12:40:46;;;;;;;1.40;1.40;;;10.80;1.00;;;;;;5069789;28;20477;-81
2022/12/26 12:43:19;;;;;;;1.40;1.40;;;10.90;1.00;;;;;;5069730;28;20453;-80
2022/12/26 12:46:09;;;;;;;1.40;1.40;;;10.70;1.00;;;;;;5069728;28;20973;-82
2022/12/26 12:49:06;;;;;;;1.40;1.40;;;10.80;1.00;;;;;;5068981;28;20867;-80
2022/12/26 12:51:41;;;;;;;1.50;1.50;;;10.80;1.00;;;;;;5063587;28;20460;-80
2022/12/26 12:54:38;;;;;;;1.33;1.33;;;10.90;1.00;;;;;;5060292;28;20462;-81
2022/12/26 12:57:13;;;;;;;2.03;1.93;;;10.80;1.00;;;;;;5070124;28;20449;-81
2022/12/26 12:59:53;;;;;;;1.37;1.37;;;10.70;1.00;;;;;;5067859;28;20466;-80
2022/12/26 13:02:28;;;;;;;1.30;1.30;;;10.60;1.00;;;;;;5067532;28;20518;-81
2022/12/26 13:05:05;;;;;;;1.70;1.60;;;10.70;1.00;;;;;;5069191;28;20953;-81
2022/12/26 13:07:39;;;;;;;1.47;1.40;;;10.80;1.00;;;;;;5067331;28;20543;-81
2022/12/26 13:10:21;;;;;;;1.40;1.40;;;10.80;1.00;;;;;;5064979;28;20839;-80
2022/12/26 13:12:51;;;;;;;1.43;1.33;;;10.80;1.00;;;;;;5068180;28;20518;-81
2022/12/26 13:15:29;;;;;;;1.33;1.33;;;10.90;1.00;;;;;;5067948;28;20445;-81
2022/12/26 13:18:03;;;;;;;1.40;1.30;;;10.90;1.00;;;;;;5069128;28;20458;-82
2022/12/26 13:20:40;;;;;;;1.63;1.53;;;10.80;1.00;;;;;;5068765;28;21184;-82
2022/12/26 13:26:10;;;;;;;1.50;1.50;;;10.70;1.00;;;;;;5069693;28;20536;-81
2022/12/26 13:28:51;;;;;;;1.50;1.40;;;10.70;1.00;;;;;;5069646;28;20463;-80
2022/12/26 13:31:20;;;;;;;5.43;1.83;;;10.70;1.00;;;;;;5069083;28;20636;-81
2022/12/26 13:33:49;;;;;;;1.87;1.77;;;10.70;1.00;;;;;;5067411;28;20502;-81
2022/12/26 13:36:40;;;;;;;1.80;1.70;;;10.80;1.00;;;;;;5082754;28;20463;-81
2022/12/26 13:39:37;;;;;;;1.80;1.70;;;10.90;1.00;;;;;;5068066;28;20458;-81
2022/12/26 13:45:47;;;;;;;1.80;1.70;;;10.90;1.00;;;;;;5068363;28;20445;-82
2022/12/26 13:49:01;;;;;;;1.80;1.60;;;10.90;1.00;;;;;;5057577;28;20502;-80
2022/12/26 13:51:46;;;;;;;1.70;1.67;;;10.80;1.00;;;;;;5068117;28;20472;-80
2022/12/26 13:54:15;;;;;;;1.63;1.50;;;10.70;1.00;;;;;;5067625;28;20530;-82
2022/12/26 13:57:28;;;;;;;2.40;2.30;;;10.70;1.00;;;;;;5068236;28;20454;-80
2022/12/26 14:00:16;;;;;;;1.80;1.70;;;10.60;1.00;;;;;;5067778;28;20478;-80
2022/12/26 14:03:37;;;;;;;2.10;2.00;;;10.70;1.00;;;;;;5066710;28;21114;-81
2022/12/26 14:06:23;;;;;;;2.33;2.23;;;10.70;1.00;;;;;;5066653;28;20791;-82
2022/12/26 14:09:09;;;;;;;1.80;1.70;;;10.70;1.00;;;;;;5068744;28;20957;-81
2022/12/26 14:11:57;;;;;;;2.47;2.37;;;10.70;1.00;;;;;;5066974;28;20884;-81
2022/12/26 14:14:33;;;;;;;1.90;1.80;;;10.70;1.00;;;;;;5068639;28;20519;-81
2022/12/26 14:17:21;;;;;;;1.97;1.87;;;10.80;1.00;;;;;;5067156;28;20461;-81
2022/12/26 14:20:00;;;;;;;2.03;1.93;;;10.70;1.00;;;;;;5068020;28;20484;-80
2022/12/26 14:22:38;;;;;;;2.53;2.43;;;10.70;1.00;;;;;;5067590;28;20988;-80
2022/12/26 14:25:23;;;;;;;2.10;1.90;;;10.70;1.00;;;;;;5064767;28;20541;-80
2022/12/26 14:27:57;;;;;;;1.90;1.83;;;10.70;1.00;;;;;;5066755;28;20956;-81
2022/12/26 14:30:32;;;;;;;1.70;1.67;;;10.70;1.00;;;;;;5067162;28;20496;-81
2022/12/26 14:33:22;;;;;;;2.10;2.00;;;10.70;1.00;;;;;;5067787;28;20575;-82
2022/12/26 14:36:01;;;;;;;1.93;1.83;;;10.70;1.00;;;;;;5066413;28;20481;-81
2022/12/26 14:38:40;;;;;;;1.60;1.60;;;10.80;1.00;;;;;;5066950;28;20462;-81
2022/12/26 14:43:09;;;;;;;1.80;1.70;;;10.80;1.00;;;;;;5067307;28;20508;-81
2022/12/26 14:44:10;;;;;;;2.10;2.00;;;10.80;1.00;;;;;;5057574;28;20461;-82
2022/12/26 14:46:59;;;;;;;1.83;1.73;;;10.90;1.00;;;;;;5067313;28;21097;-81
2022/12/26 14:49:38;;;;;;;1.87;1.83;;;10.80;1.00;;;;;;5067385;28;20482;-81
2022/12/26 14:52:42;;;;;;;2.07;1.97;;;10.80;1.00;;;;;;5068373;28;20466;-81
2022/12/26 14:55:45;;;;;;;2.10;2.00;;;10.90;1.00;;;;;;5004604;28;20469;-81
2022/12/26 14:58:39;;;;;;;2.17;2.07;;;10.90;1.00;;;;;;5004980;28;20465;-79
2022/12/26 15:01:43;;;;;;;2.00;1.90;;;10.80;1.00;;;;;;5057936;28;20478;-81
2022/12/26 15:04:42;;;;;;;1.93;1.83;;;10.80;1.00;;;;;;5066443;28;20447;-79
2022/12/26 15:07:56;;;;;;;1.93;1.83;;;10.80;1.00;;;;;;5067516;28;20506;-81
2022/12/26 15:10:56;;;;;;;2.13;2.00;;;10.80;1.00;;;;;;5066706;28;21042;-82
2022/12/26 15:14:11;;;;;;;1.97;1.87;;;10.80;1.00;;;;;;5065940;28;20495;-81
2022/12/26 15:16:59;;;;;;;2.00;1.90;;;10.70;1.00;;;;;;5067156;28;20546;-80
2022/12/26 15:20:12;;;;;;;1.87;1.80;;;10.70;1.00;;;;;;5067108;28;20607;-81
2022/12/26 15:23:02;;;;;;;1.90;1.80;;;10.60;1.00;;;;;;5065067;28;20470;-80
2022/12/26 15:26:07;;;;;;;1.50;1.50;;;10.70;1.00;;;;;;5067443;28;20500;-80
2022/12/26 15:29:03;;;;;;;2.10;2.00;;;10.60;1.00;;;;;;5075421;28;20884;-80
2022/12/26 15:31:40;;;;;;;1.90;1.80;;;10.50;1.00;;;;;;5066278;28;20457;-81
2022/12/26 15:34:37;;;;;;;2.03;1.93;;;10.60;1.00;;;;;;5070736;28;20465;-80
2022/12/26 15:37:14;;;;;;;2.00;1.90;;;10.70;1.00;;;;;;5070655;28;20825;-81
2022/12/26 15:39:49;;;;;;;2.23;2.03;;;10.60;1.00;;;;;;5070492;28;20484;-81
2022/12/26 15:42:34;;;;;;;1.70;1.67;;;10.60;1.00;;;;;;5071380;28;20833;-81
2022/12/26 15:45:19;;;;;;;1.60;1.50;;;10.60;1.00;;;;;;5070460;28;20456;-80
2022/12/26 15:48:02;;;;;;;2.20;2.10;;;10.70;1.00;;;;;;5069849;28;20458;-81
2022/12/26 15:50:38;;;;;;;1.83;1.73;;;10.80;1.00;;;;;;5069602;28;20549;-82
2022/12/26 15:53:17;;;;;;;2.20;2.10;;;10.80;1.00;;;;;;5070568;28;20452;-81